createdAt,value
2022-11-25T00:00:07.444Z,41.90
2022-11-25T00:01:22.661Z,41.90
2022-11-25T00:02:25.006Z,41.80
2022-11-25T00:03:27.390Z,41.90
2022-11-25T00:04:34.206Z,42.10
2022-11-25T00:05:36.654Z,42.00
2022-11-25T00:06:39.095Z,42.00
2022-11-25T00:07:41.594Z,41.90
2022-11-25T00:08:45.978Z,42.00
2022-11-25T00:09:48.276Z,41.90
2022-11-25T00:10:50.547Z,41.90
2022-11-25T00:11:52.952Z,42.00
2022-11-25T00:12:55.251Z,42.00
2022-11-25T00:13:58.103Z,42.00
2022-11-25T00:15:00.392Z,41.90
2022-11-25T00:16:08.402Z,42.10
2022-11-25T00:17:10.688Z,42.30
2022-11-25T00:18:13.050Z,42.00
2022-11-25T00:19:15.569Z,42.20
2022-11-25T00:20:20.394Z,42.30
2022-11-25T00:21:26.695Z,42.90
2022-11-25T00:22:28.999Z,42.80
2022-11-25T00:23:33.364Z,43.00
2022-11-25T00:24:35.982Z,43.10
2022-11-25T00:25:38.366Z,43.10
2022-11-25T00:26:41.152Z,42.90
2022-11-25T00:27:43.406Z,42.80
2022-11-25T00:28:46.938Z,42.70
2022-11-25T00:29:49.218Z,42.90
2022-11-25T00:30:51.701Z,42.90
2022-11-25T00:31:54.051Z,42.90
2022-11-25T00:32:56.393Z,42.70
2022-11-25T00:33:58.877Z,42.30
2022-11-25T00:35:01.170Z,42.20
2022-11-25T00:36:05.642Z,42.00
2022-11-25T00:37:07.896Z,42.00
2022-11-25T00:38:10.287Z,42.00
2022-11-25T00:39:17.622Z,41.90
2022-11-25T00:40:20.245Z,41.90
2022-11-25T00:41:41.253Z,41.90
2022-11-25T00:43:02.238Z,41.90
2022-11-25T00:44:24.409Z,42.00
2022-11-25T00:45:27.263Z,41.90
2022-11-25T00:46:29.586Z,41.90
2022-11-25T00:47:31.857Z,42.10
2022-11-25T00:48:34.146Z,42.30
2022-11-25T00:49:37.478Z,42.10
2022-11-25T00:50:39.996Z,42.10
2022-11-25T00:51:42.530Z,42.20
2022-11-25T00:52:45.026Z,42.70
2022-11-25T00:53:47.947Z,42.30
2022-11-25T00:54:51.322Z,44.40
2022-11-25T00:56:12.388Z,43.00
2022-11-25T00:57:16.725Z,43.20
2022-11-25T00:58:19.121Z,43.60
2022-11-25T00:59:22.439Z,44.90
2022-11-25T01:00:24.817Z,42.90
2022-11-25T01:01:27.318Z,41.70
2022-11-25T01:02:29.663Z,41.90
2022-11-25T01:03:32.300Z,41.80
2022-11-25T01:04:35.040Z,42.00
2022-11-25T01:05:37.638Z,44.10
2022-11-25T01:06:40.045Z,43.80
2022-11-25T01:07:42.386Z,43.70
2022-11-25T01:08:44.941Z,43.60
2022-11-25T01:09:48.985Z,43.40
2022-11-25T01:11:02.033Z,43.50
2022-11-25T01:12:05.244Z,43.80
2022-11-25T01:13:07.551Z,43.90
2022-11-25T01:14:11.478Z,44.20
2022-11-25T01:15:13.785Z,44.20
2022-11-25T01:16:19.339Z,44.10
2022-11-25T01:17:22.539Z,44.10
2022-11-25T01:18:24.808Z,44.20
2022-11-25T01:19:29.224Z,44.30
2022-11-25T01:20:31.555Z,44.30
2022-11-25T01:21:35.430Z,44.10
2022-11-25T01:22:37.802Z,44.10
2022-11-25T01:23:42.120Z,44.10
2022-11-25T01:24:44.470Z,44.20
2022-11-25T01:25:46.756Z,44.20
2022-11-25T01:26:49.058Z,44.20
2022-11-25T01:27:51.425Z,43.80
2022-11-25T01:28:59.681Z,44.40
2022-11-25T01:30:02.013Z,44.60
2022-11-25T01:31:07.131Z,44.40
2022-11-25T01:32:09.494Z,44.30
2022-11-25T01:33:14.237Z,44.30
2022-11-25T01:34:22.965Z,44.40
2022-11-25T01:35:25.261Z,44.80
2022-11-25T01:36:28.688Z,44.70
2022-11-25T01:37:30.991Z,44.50
2022-11-25T01:38:33.985Z,44.50
2022-11-25T01:39:36.388Z,44.50
2022-11-25T01:40:38.667Z,44.70
2022-11-25T01:41:40.995Z,44.60
2022-11-25T01:42:45.884Z,44.80
2022-11-25T01:44:13.585Z,44.60
2022-11-25T01:45:37.366Z,44.60
2022-11-25T01:46:51.248Z,44.80
2022-11-25T01:47:58.851Z,44.60
2022-11-25T01:49:06.391Z,45.20
2022-11-25T01:50:12.778Z,44.70
2022-11-25T01:51:26.831Z,44.70
2022-11-25T01:52:35.491Z,44.70
2022-11-25T01:53:38.036Z,44.70
2022-11-25T01:55:02.374Z,44.50
2022-11-25T01:56:05.386Z,44.60
2022-11-25T01:57:16.555Z,44.50
2022-11-25T01:58:24.440Z,44.60
2022-11-25T01:59:29.004Z,44.70
2022-11-25T02:00:31.629Z,44.60
2022-11-25T02:01:34.073Z,44.60
2022-11-25T02:02:36.479Z,44.50
2022-11-25T02:03:44.570Z,44.60
2022-11-25T02:04:49.150Z,45.50
2022-11-25T02:06:04.614Z,45.90
2022-11-25T02:07:20.042Z,46.10
2022-11-25T02:08:24.608Z,46.30
2022-11-25T02:09:27.701Z,46.00
2022-11-25T02:10:32.376Z,46.50
2022-11-25T02:11:38.804Z,46.70
2022-11-25T02:12:43.209Z,47.30
2022-11-25T02:13:49.002Z,47.60
2022-11-25T02:14:53.714Z,47.40
2022-11-25T02:15:56.034Z,47.20
2022-11-25T02:17:02.339Z,47.10
2022-11-25T02:18:05.476Z,47.00
2022-11-25T02:19:19.475Z,46.90
2022-11-25T02:20:25.043Z,47.00
2022-11-25T02:21:38.239Z,46.90
2022-11-25T02:22:49.763Z,47.00
2022-11-25T02:24:04.123Z,47.10
2022-11-25T02:25:20.645Z,47.00
2022-11-25T02:26:23.524Z,47.10
2022-11-25T02:27:27.218Z,47.20
2022-11-25T02:28:31.974Z,47.10
2022-11-25T02:29:34.927Z,47.20
2022-11-25T02:30:37.726Z,47.30
2022-11-25T02:31:40.110Z,47.30
2022-11-25T02:32:47.668Z,47.30
2022-11-25T02:33:50.427Z,47.50
2022-11-25T02:34:52.844Z,47.80
2022-11-25T02:36:06.828Z,47.20
2022-11-25T02:37:09.188Z,45.20
2022-11-25T02:38:25.946Z,42.00
2022-11-25T02:39:28.960Z,43.80
2022-11-25T02:40:36.110Z,45.10
2022-11-25T02:41:45.170Z,45.60
2022-11-25T02:42:50.101Z,45.90
2022-11-25T02:43:52.440Z,45.80
2022-11-25T02:44:55.593Z,45.90
2022-11-25T02:46:15.074Z,45.90
2022-11-25T02:47:21.478Z,45.90
2022-11-25T02:48:45.723Z,45.80
2022-11-25T02:49:47.212Z,45.70
2022-11-25T02:50:49.896Z,45.70
2022-11-25T02:51:52.345Z,45.70
2022-11-25T02:52:54.693Z,45.80
2022-11-25T02:53:58.155Z,46.20
2022-11-25T02:55:01.517Z,45.90
2022-11-25T02:56:04.149Z,45.80
2022-11-25T02:57:06.545Z,45.80
2022-11-25T02:58:11.020Z,44.30
2022-11-25T02:59:14.681Z,46.40
2022-11-25T03:00:17.931Z,46.20
2022-11-25T03:01:20.984Z,45.90
2022-11-25T03:02:25.426Z,46.10
2022-11-25T03:03:28.217Z,46.10
2022-11-25T03:04:30.558Z,46.20
2022-11-25T03:05:33.127Z,46.80
2022-11-25T03:06:35.459Z,46.30
2022-11-25T03:07:37.971Z,46.30
2022-11-25T03:08:40.441Z,46.40
2022-11-25T03:09:46.722Z,46.40
2022-11-25T03:10:49.116Z,46.10
2022-11-25T03:12:10.881Z,46.40
2022-11-25T03:13:13.267Z,46.10
2022-11-25T03:14:15.673Z,46.20
2022-11-25T03:15:18.694Z,46.30
2022-11-25T03:16:21.302Z,46.10
2022-11-25T03:17:23.681Z,46.90
2022-11-25T03:18:25.988Z,46.80
2022-11-25T03:19:28.270Z,46.50
2022-11-25T03:20:30.863Z,47.50
2022-11-25T03:21:33.208Z,47.50
2022-11-25T03:22:35.990Z,47.80
2022-11-25T03:23:40.060Z,48.00
2022-11-25T03:24:42.372Z,47.30
2022-11-25T03:25:44.872Z,41.20
2022-11-25T03:26:47.161Z,41.00
2022-11-25T03:27:49.700Z,42.30
2022-11-25T03:28:52.530Z,44.40
2022-11-25T03:29:54.882Z,47.10
2022-11-25T03:30:57.215Z,48.10
2022-11-25T03:32:03.262Z,48.80
2022-11-25T03:33:07.828Z,48.90
2022-11-25T03:34:10.150Z,49.20
2022-11-25T03:35:13.759Z,49.30
2022-11-25T03:36:16.125Z,49.00
2022-11-25T03:37:19.575Z,49.20
2022-11-25T03:38:22.545Z,49.00
2022-11-25T03:39:24.896Z,48.80
2022-11-25T03:40:27.372Z,48.70
2022-11-25T03:41:29.891Z,48.70
2022-11-25T03:42:32.518Z,48.60
2022-11-25T03:43:35.643Z,48.50
2022-11-25T03:44:38.710Z,48.20
2022-11-25T03:45:41.157Z,48.60
2022-11-25T03:46:44.449Z,48.30
2022-11-25T03:47:47.599Z,48.30
2022-11-25T03:48:49.943Z,47.40
2022-11-25T03:49:52.332Z,47.00
2022-11-25T03:50:54.729Z,47.00
2022-11-25T03:51:58.752Z,47.00
2022-11-25T03:53:01.510Z,46.90
2022-11-25T03:54:04.088Z,46.90
2022-11-25T03:55:16.672Z,46.70
2022-11-25T03:56:21.240Z,47.00
2022-11-25T03:57:23.581Z,47.30
2022-11-25T03:58:27.329Z,47.70
2022-11-25T03:59:29.795Z,47.90
2022-11-25T04:00:33.796Z,47.30
2022-11-25T04:01:44.001Z,48.10
2022-11-25T04:02:46.925Z,48.20
2022-11-25T04:03:51.171Z,47.90
2022-11-25T04:04:53.948Z,48.00
2022-11-25T04:05:56.569Z,48.00
2022-11-25T04:06:58.960Z,48.10
2022-11-25T04:08:01.472Z,47.90
2022-11-25T04:09:04.130Z,47.90
2022-11-25T04:10:07.348Z,48.20
2022-11-25T04:11:10.408Z,47.70
2022-11-25T04:12:35.994Z,48.20
2022-11-25T04:13:42.079Z,47.70
2022-11-25T04:14:44.409Z,46.00
2022-11-25T04:15:48.154Z,45.40
2022-11-25T04:16:51.893Z,46.00
2022-11-25T04:17:54.295Z,47.30
2022-11-25T04:18:56.653Z,47.60
2022-11-25T04:19:59.167Z,48.10
2022-11-25T04:21:01.687Z,48.00
2022-11-25T04:22:04.032Z,47.90
2022-11-25T04:23:09.397Z,48.20
2022-11-25T04:24:18.741Z,47.90
2022-11-25T04:25:21.033Z,47.90
2022-11-25T04:26:23.529Z,47.90
2022-11-25T04:27:26.060Z,47.40
2022-11-25T04:28:30.135Z,47.60
2022-11-25T04:29:32.828Z,47.40
2022-11-25T04:30:39.217Z,47.20
2022-11-25T04:31:41.767Z,47.40
2022-11-25T04:32:44.138Z,47.00
2022-11-25T04:33:52.560Z,46.90
2022-11-25T04:34:56.526Z,47.00
2022-11-25T04:35:58.949Z,47.00
2022-11-25T04:37:01.252Z,47.20
2022-11-25T04:38:04.230Z,47.40
2022-11-25T04:39:09.270Z,47.40
2022-11-25T04:40:12.514Z,47.60
2022-11-25T04:41:14.774Z,47.20
2022-11-25T04:42:34.366Z,47.60
2022-11-25T04:43:39.094Z,47.90
2022-11-25T04:45:00.985Z,47.50
2022-11-25T04:46:14.361Z,47.60
2022-11-25T04:47:20.116Z,48.20
2022-11-25T04:48:22.761Z,47.80
2022-11-25T04:49:25.054Z,48.10
2022-11-25T04:50:27.758Z,48.10
2022-11-25T04:51:37.882Z,48.00
2022-11-25T04:52:42.556Z,48.10
2022-11-25T04:53:45.675Z,48.20
2022-11-25T04:54:48.790Z,47.80
2022-11-25T04:55:51.386Z,47.80
2022-11-25T04:56:54.925Z,48.30
2022-11-25T04:58:01.835Z,48.20
2022-11-25T04:59:24.064Z,48.10
2022-11-25T05:00:26.592Z,48.30
2022-11-25T05:01:29.178Z,48.30
2022-11-25T05:02:39.470Z,48.20
2022-11-25T05:04:00.105Z,47.90
2022-11-25T05:05:04.601Z,47.90
2022-11-25T05:06:08.592Z,47.90
2022-11-25T05:07:13.614Z,47.90
2022-11-25T05:08:16.706Z,47.90
2022-11-25T05:09:19.208Z,47.70
2022-11-25T05:10:26.265Z,47.90
2022-11-25T05:11:28.598Z,48.00
2022-11-25T05:12:31.043Z,48.00
2022-11-25T05:13:34.250Z,47.80
2022-11-25T05:14:36.784Z,48.00
2022-11-25T05:15:39.256Z,47.90
2022-11-25T05:16:43.501Z,47.90
2022-11-25T05:17:45.817Z,47.80
2022-11-25T05:18:49.128Z,48.10
2022-11-25T05:19:52.683Z,47.90
2022-11-25T05:20:55.224Z,48.10
2022-11-25T05:21:58.043Z,48.10
2022-11-25T05:23:00.392Z,47.90
2022-11-25T05:24:03.294Z,48.00
2022-11-25T05:25:10.671Z,47.70
2022-11-25T05:26:19.541Z,47.80
2022-11-25T05:27:27.662Z,47.50
2022-11-25T05:28:32.601Z,44.50
2022-11-25T05:29:35.379Z,40.30
2022-11-25T05:30:38.069Z,39.10
2022-11-25T05:31:40.878Z,39.10
2022-11-25T05:32:44.153Z,45.10
2022-11-25T05:33:46.792Z,45.70
2022-11-25T05:34:50.462Z,46.20
2022-11-25T05:36:01.030Z,49.00
2022-11-25T05:37:12.833Z,49.50
2022-11-25T05:38:18.671Z,48.80
2022-11-25T05:39:21.329Z,49.90
2022-11-25T05:40:42.107Z,48.70
2022-11-25T05:41:48.297Z,48.10
2022-11-25T05:42:51.719Z,48.50
2022-11-25T05:43:55.373Z,47.80
2022-11-25T05:44:58.023Z,47.90
2022-11-25T05:46:03.916Z,47.90
2022-11-25T05:47:06.558Z,47.70
2022-11-25T05:48:09.197Z,47.60
2022-11-25T05:49:11.546Z,47.90
2022-11-25T05:50:13.954Z,47.50
2022-11-25T05:51:16.716Z,47.30
2022-11-25T05:52:19.238Z,47.30
2022-11-25T05:53:29.166Z,47.20
2022-11-25T05:54:32.344Z,47.30
2022-11-25T05:55:35.332Z,47.00
2022-11-25T05:56:40.697Z,47.60
2022-11-25T05:58:13.028Z,47.50
2022-11-25T05:59:17.231Z,47.30
2022-11-25T06:00:36.887Z,47.30
2022-11-25T06:01:44.467Z,47.90
2022-11-25T06:02:51.188Z,47.70
2022-11-25T06:03:54.831Z,48.00
2022-11-25T06:04:57.285Z,48.00
2022-11-25T06:06:00.007Z,47.80
2022-11-25T06:07:02.599Z,47.70
2022-11-25T06:08:05.658Z,46.00
2022-11-25T06:09:08.197Z,47.20
2022-11-25T06:10:11.551Z,47.60
2022-11-25T06:11:17.797Z,48.40
2022-11-25T06:12:23.281Z,48.60
2022-11-25T06:13:25.781Z,47.70
2022-11-25T06:14:28.125Z,47.60
2022-11-25T06:15:30.682Z,47.70
2022-11-25T06:16:34.402Z,47.50
2022-11-25T06:17:45.412Z,47.90
2022-11-25T06:18:55.303Z,47.80
2022-11-25T06:19:57.628Z,47.70
2022-11-25T06:21:00.108Z,47.10
2022-11-25T06:22:03.890Z,46.80
2022-11-25T06:23:07.388Z,47.00
2022-11-25T06:24:12.297Z,46.70
2022-11-25T06:25:16.457Z,46.60
2022-11-25T06:26:21.004Z,46.60
2022-11-25T06:27:23.392Z,46.60
2022-11-25T06:28:25.715Z,46.50
2022-11-25T06:29:28.073Z,46.40
2022-11-25T06:30:31.112Z,46.50
2022-11-25T06:31:43.905Z,46.50
2022-11-25T06:33:09.138Z,46.40
2022-11-25T06:34:11.970Z,46.40
2022-11-25T06:35:16.448Z,46.40
2022-11-25T06:36:38.105Z,46.40
2022-11-25T06:37:40.904Z,46.30
2022-11-25T06:38:48.595Z,46.30
2022-11-25T06:39:50.911Z,46.20
2022-11-25T06:40:56.392Z,46.20
2022-11-25T06:42:01.670Z,46.20
2022-11-25T06:43:05.002Z,46.20
2022-11-25T06:44:07.379Z,46.30
2022-11-25T06:45:10.270Z,46.30
2022-11-25T06:46:18.522Z,46.20
2022-11-25T06:47:25.995Z,46.30
2022-11-25T06:48:28.654Z,46.30
2022-11-25T06:49:30.935Z,46.30
2022-11-25T06:50:33.517Z,46.30
2022-11-25T06:51:35.894Z,46.30
2022-11-25T06:52:38.262Z,46.20
2022-11-25T06:53:40.744Z,46.30
2022-11-25T06:54:43.228Z,46.30
2022-11-25T06:55:45.537Z,46.30
2022-11-25T06:56:51.622Z,46.30
2022-11-25T06:58:08.381Z,46.20
2022-11-25T06:59:16.786Z,46.30
2022-11-25T07:00:19.938Z,46.30
2022-11-25T07:01:35.391Z,46.00
2022-11-25T07:02:44.032Z,47.10
2022-11-25T07:03:50.237Z,46.20
2022-11-25T07:04:54.256Z,46.20
2022-11-25T07:05:58.374Z,46.20
2022-11-25T07:07:00.700Z,46.00
2022-11-25T07:08:03.291Z,46.30
2022-11-25T07:09:06.461Z,46.10
2022-11-25T07:10:09.141Z,46.20
2022-11-25T07:11:24.761Z,46.20
2022-11-25T07:12:27.072Z,46.10
2022-11-25T07:13:29.434Z,46.10
2022-11-25T07:14:31.722Z,46.20
2022-11-25T07:15:34.800Z,46.10
2022-11-25T07:16:39.353Z,46.20
2022-11-25T07:17:41.676Z,46.10
2022-11-25T07:18:43.995Z,46.20
2022-11-25T07:19:46.430Z,46.20
2022-11-25T07:20:48.745Z,46.20
2022-11-25T07:21:51.379Z,46.20
2022-11-25T07:22:53.682Z,46.20
2022-11-25T07:23:56.321Z,46.20
2022-11-25T07:24:58.650Z,46.20
2022-11-25T07:26:06.387Z,46.30
2022-11-25T07:27:08.731Z,46.90
2022-11-25T07:28:10.993Z,46.40
2022-11-25T07:29:50.363Z,46.50
2022-11-25T07:31:22.219Z,46.60
2022-11-25T07:32:03.389Z,46.50
2022-11-25T07:33:09.605Z,47.10
2022-11-25T07:34:20.348Z,46.80
2022-11-25T07:35:22.657Z,46.50
2022-11-25T07:36:25.849Z,46.40
2022-11-25T07:37:28.189Z,41.50
2022-11-25T07:38:30.853Z,38.80
2022-11-25T07:39:33.378Z,39.60
2022-11-25T07:40:35.802Z,39.30
2022-11-25T07:41:38.490Z,42.70
2022-11-25T07:42:40.807Z,43.80
2022-11-25T07:43:46.514Z,44.70
2022-11-25T07:44:51.271Z,45.30
2022-11-25T07:46:33.263Z,45.80
2022-11-25T07:47:35.721Z,46.70
2022-11-25T07:48:38.509Z,46.90
2022-11-25T07:49:41.025Z,47.00
2022-11-25T07:50:43.540Z,47.00
2022-11-25T07:51:53.247Z,47.10
2022-11-25T07:52:55.682Z,47.20
2022-11-25T07:54:00.425Z,47.00
2022-11-25T07:55:02.856Z,47.00
2022-11-25T07:56:05.897Z,47.10
2022-11-25T07:57:08.229Z,46.90
2022-11-25T07:58:10.571Z,46.70
2022-11-25T07:59:15.732Z,46.90
2022-11-25T08:00:18.499Z,46.60
2022-11-25T08:01:21.344Z,46.70
2022-11-25T08:02:23.756Z,46.80
2022-11-25T08:03:26.218Z,46.80
2022-11-25T08:04:28.566Z,46.70
2022-11-25T08:05:33.532Z,46.30
2022-11-25T08:06:39.824Z,46.20
2022-11-25T08:07:42.171Z,46.10
2022-11-25T08:08:45.522Z,46.30
2022-11-25T08:09:47.851Z,46.20
2022-11-25T08:10:50.240Z,46.30
2022-11-25T08:11:53.076Z,46.30
2022-11-25T08:12:55.361Z,46.10
2022-11-25T08:13:58.250Z,46.00
2022-11-25T08:15:00.545Z,45.90
2022-11-25T08:16:03.418Z,46.20
2022-11-25T08:17:06.383Z,46.40
2022-11-25T08:18:09.440Z,42.60
2022-11-25T08:19:14.916Z,41.50
2022-11-25T08:20:17.555Z,41.80
2022-11-25T08:21:24.206Z,42.20
2022-11-25T08:22:26.751Z,45.50
2022-11-25T08:23:31.443Z,46.10
2022-11-25T08:24:33.863Z,45.80
2022-11-25T08:25:47.433Z,43.10
2022-11-25T08:26:54.401Z,43.10
2022-11-25T08:27:57.443Z,43.00
2022-11-25T08:29:01.106Z,43.80
2022-11-25T08:30:03.596Z,43.90
2022-11-25T08:31:12.564Z,45.20
2022-11-25T08:32:15.034Z,45.70
2022-11-25T08:33:17.349Z,47.10
2022-11-25T08:34:22.398Z,47.70
2022-11-25T08:35:27.684Z,48.10
2022-11-25T08:36:33.409Z,47.20
2022-11-25T08:37:35.660Z,46.90
2022-11-25T08:38:38.779Z,46.70
2022-11-25T08:39:52.456Z,46.60
2022-11-25T08:40:56.330Z,46.50
2022-11-25T08:41:58.618Z,47.10
2022-11-25T08:43:01.616Z,47.00
2022-11-25T08:44:07.417Z,47.10
2022-11-25T08:45:12.444Z,46.90
2022-11-25T08:46:21.244Z,47.00
2022-11-25T08:47:24.450Z,47.50
2022-11-25T08:48:26.682Z,47.90
2022-11-25T08:49:31.172Z,47.80
2022-11-25T08:50:36.066Z,47.00
2022-11-25T08:51:38.926Z,47.20
2022-11-25T08:52:41.943Z,47.00
2022-11-25T08:53:45.833Z,47.60
2022-11-25T08:54:48.131Z,48.00
2022-11-25T08:55:50.465Z,48.10
2022-11-25T08:56:52.740Z,48.20
2022-11-25T08:57:55.181Z,47.90
2022-11-25T08:58:57.548Z,48.40
2022-11-25T08:59:59.795Z,48.60
2022-11-25T09:01:03.309Z,48.70
2022-11-25T09:02:06.466Z,48.80
2022-11-25T09:03:10.070Z,49.00
2022-11-25T09:04:12.510Z,49.00
2022-11-25T09:05:17.023Z,48.60
2022-11-25T09:06:20.193Z,48.80
2022-11-25T09:07:27.556Z,48.90
2022-11-25T09:08:33.225Z,49.90
2022-11-25T09:09:35.832Z,49.60
2022-11-25T09:10:39.707Z,48.90
2022-11-25T09:11:42.364Z,48.70
2022-11-25T09:12:44.842Z,48.60
2022-11-25T09:13:47.175Z,48.30
2022-11-25T09:14:49.500Z,48.70
2022-11-25T09:15:52.302Z,48.90
2022-11-25T09:16:56.906Z,49.20
2022-11-25T09:18:00.677Z,49.20
2022-11-25T09:19:03.064Z,49.30
2022-11-25T09:20:06.289Z,49.30
2022-11-25T09:21:11.432Z,48.70
2022-11-25T09:22:13.793Z,49.20
2022-11-25T09:23:16.089Z,49.60
2022-11-25T09:24:18.436Z,49.70
2022-11-25T09:25:23.521Z,49.60
2022-11-25T09:26:32.870Z,49.70
2022-11-25T09:27:35.137Z,48.50
2022-11-25T09:28:37.411Z,47.60
2022-11-25T09:29:39.916Z,47.90
2022-11-25T09:30:42.362Z,48.50
2022-11-25T09:31:44.662Z,48.90
2022-11-25T09:32:50.214Z,44.70
2022-11-25T09:33:52.882Z,43.00
2022-11-25T09:34:55.195Z,47.40
2022-11-25T09:36:00.792Z,47.40
2022-11-25T09:37:03.310Z,47.20
2022-11-25T09:38:05.626Z,47.00
2022-11-25T09:39:07.927Z,47.20
2022-11-25T09:40:20.405Z,47.30
2022-11-25T09:42:04.137Z,47.50
2022-11-25T09:43:44.229Z,46.70
2022-11-25T09:45:34.559Z,46.00
2022-11-25T09:47:06.870Z,46.90
2022-11-25T09:48:35.558Z,47.60
2022-11-25T09:50:15.022Z,47.50
2022-11-25T09:51:22.185Z,47.80
2022-11-25T09:52:46.083Z,47.60
2022-11-25T09:53:54.145Z,47.60
2022-11-25T09:55:05.620Z,47.70
2022-11-25T09:56:22.639Z,47.80
2022-11-25T09:57:43.803Z,47.90
2022-11-25T09:58:54.070Z,48.00
2022-11-25T10:00:07.190Z,48.00
2022-11-25T10:01:19.369Z,48.10
2022-11-25T10:02:34.206Z,48.40
2022-11-25T10:04:15.361Z,48.40
2022-11-25T10:05:35.283Z,48.50
2022-11-25T10:06:49.480Z,48.40
2022-11-25T10:08:01.156Z,48.70
2022-11-25T10:09:19.445Z,48.20
2022-11-25T10:10:31.360Z,48.20
2022-11-25T10:11:51.090Z,49.10
2022-11-25T10:12:56.661Z,48.60
2022-11-25T10:14:07.346Z,48.50
2022-11-25T10:15:30.393Z,48.60
2022-11-25T10:16:47.150Z,48.90
2022-11-25T10:17:57.233Z,48.70
2022-11-25T10:19:28.319Z,48.90
2022-11-25T10:20:35.286Z,48.80
2022-11-25T10:21:37.557Z,49.00
2022-11-25T10:22:46.557Z,49.00
2022-11-25T10:23:48.858Z,49.10
2022-11-25T10:24:56.491Z,49.00
2022-11-25T10:26:03.226Z,49.20
2022-11-25T10:27:11.189Z,49.20
2022-11-25T10:28:25.551Z,48.80
2022-11-25T10:29:30.781Z,48.70
2022-11-25T10:30:46.529Z,48.70
2022-11-25T10:31:51.752Z,48.60
2022-11-25T10:33:14.658Z,48.80
2022-11-25T10:34:31.953Z,49.30
2022-11-25T10:35:40.626Z,49.00
2022-11-25T10:36:44.157Z,49.00
2022-11-25T10:37:54.919Z,49.00
2022-11-25T10:39:02.610Z,48.90
2022-11-25T10:40:05.976Z,49.00
2022-11-25T10:41:16.942Z,49.00
2022-11-25T10:42:22.640Z,49.10
2022-11-25T10:43:30.322Z,49.20
2022-11-25T10:44:37.192Z,49.00
2022-11-25T10:46:11.811Z,49.00
2022-11-25T10:47:28.996Z,48.90
2022-11-25T10:48:54.424Z,48.90
2022-11-25T10:50:37.359Z,49.10
2022-11-25T10:51:50.295Z,49.10
2022-11-25T10:53:21.218Z,49.20
2022-11-25T10:54:27.818Z,49.10
2022-11-25T10:55:33.153Z,49.10
2022-11-25T10:56:50.733Z,48.90
2022-11-25T10:57:54.375Z,49.10
2022-11-25T10:58:56.658Z,49.20
2022-11-25T11:00:00.059Z,49.10
2022-11-25T11:01:14.033Z,48.90
2022-11-25T11:02:23.497Z,48.80
2022-11-25T11:03:27.004Z,48.90
2022-11-25T11:04:29.386Z,49.10
2022-11-25T11:05:31.846Z,49.10
2022-11-25T11:06:41.993Z,49.10
2022-11-25T11:07:46.220Z,49.10
2022-11-25T11:08:48.638Z,49.20
2022-11-25T11:09:51.251Z,49.10
2022-11-25T11:11:21.656Z,49.20
2022-11-25T11:12:27.138Z,49.10
2022-11-25T11:13:33.208Z,49.00
2022-11-25T11:14:35.940Z,49.10
2022-11-25T11:15:41.351Z,49.20
2022-11-25T11:16:52.307Z,49.20
2022-11-25T11:17:55.975Z,49.20
2022-11-25T11:18:58.598Z,49.20
2022-11-25T11:20:13.636Z,49.10
2022-11-25T11:21:29.645Z,49.20
2022-11-25T11:22:33.014Z,49.20
2022-11-25T11:23:53.077Z,49.00
2022-11-25T11:25:21.640Z,49.10
2022-11-25T11:26:35.218Z,49.60
2022-11-25T11:27:38.732Z,49.60
2022-11-25T11:28:41.459Z,49.60
2022-11-25T11:29:43.803Z,49.70
2022-11-25T11:31:06.291Z,49.70
2022-11-25T11:32:28.420Z,49.50
2022-11-25T11:33:34.366Z,49.40
2022-11-25T11:34:49.271Z,49.50
2022-11-25T11:36:15.278Z,49.00
2022-11-25T11:37:36.517Z,49.60
2022-11-25T11:39:13.390Z,48.60
2022-11-25T11:40:32.386Z,48.90
2022-11-25T11:41:49.491Z,49.00
2022-11-25T11:43:06.403Z,48.90
2022-11-25T11:44:18.882Z,49.00
2022-11-25T11:45:24.181Z,49.20
2022-11-25T11:46:26.480Z,49.20
2022-11-25T11:47:53.027Z,49.20
2022-11-25T11:49:15.851Z,49.30
2022-11-25T11:50:30.768Z,49.20
2022-11-25T11:51:55.811Z,48.90
2022-11-25T11:52:58.535Z,48.90
2022-11-25T11:54:15.966Z,48.90
2022-11-25T11:56:00.234Z,48.60
2022-11-25T11:57:30.411Z,48.80
2022-11-25T11:58:44.760Z,49.10
2022-11-25T11:59:53.367Z,49.00
2022-11-25T12:01:22.385Z,48.60
2022-11-25T12:02:40.765Z,48.60
2022-11-25T12:03:59.416Z,48.80
2022-11-25T12:05:10.718Z,48.80
2022-11-25T12:06:13.429Z,48.70
2022-11-25T12:07:34.551Z,48.70
2022-11-25T12:08:56.285Z,48.80
2022-11-25T12:10:25.074Z,48.90
2022-11-25T12:11:35.058Z,49.20
2022-11-25T12:13:20.233Z,48.60
2022-11-25T12:14:47.110Z,48.80
2022-11-25T12:15:58.864Z,49.10
2022-11-25T12:17:06.022Z,48.40
2022-11-25T12:18:20.310Z,48.20
2022-11-25T12:19:38.421Z,48.40
2022-11-25T12:21:05.097Z,48.30
2022-11-25T12:22:19.692Z,48.20
2022-11-25T12:23:33.909Z,48.30
2022-11-25T12:25:01.581Z,48.30
2022-11-25T12:26:11.291Z,48.40
2022-11-25T12:27:38.875Z,48.40
2022-11-25T12:28:56.388Z,48.20
2022-11-25T12:30:04.251Z,48.30
2022-11-25T12:31:19.059Z,48.10
2022-11-25T12:32:35.642Z,48.10
2022-11-25T12:33:58.576Z,48.10
2022-11-25T12:35:07.053Z,48.30
2022-11-25T12:36:26.526Z,48.20
2022-11-25T12:37:47.654Z,48.20
2022-11-25T12:39:17.478Z,48.20
2022-11-25T12:40:47.390Z,48.10
2022-11-25T12:41:59.069Z,48.10
2022-11-25T12:43:33.414Z,48.20
2022-11-25T12:45:20.138Z,48.20
2022-11-25T12:46:56.463Z,48.20
2022-11-25T12:47:58.885Z,48.20
2022-11-25T12:49:02.187Z,48.20
2022-11-25T12:50:05.127Z,48.50
2022-11-25T12:51:32.151Z,48.20
2022-11-25T12:52:49.790Z,48.20
2022-11-25T12:54:26.103Z,48.30
2022-11-25T12:55:29.100Z,48.20
2022-11-25T12:56:41.650Z,48.20
2022-11-25T12:58:21.882Z,48.20
2022-11-25T12:59:49.939Z,48.20
2022-11-25T13:01:10.231Z,48.20
2022-11-25T13:02:29.510Z,48.30
2022-11-25T13:03:34.739Z,48.30
2022-11-25T13:05:32.717Z,48.40
2022-11-25T13:07:05.390Z,48.40
2022-11-25T13:08:28.561Z,48.40
2022-11-25T13:09:46.535Z,48.50
2022-11-25T13:10:51.650Z,48.40
2022-11-25T13:12:18.490Z,48.40
2022-11-25T13:13:45.733Z,48.50
2022-11-25T13:15:27.030Z,48.50
2022-11-25T13:16:31.224Z,48.50
2022-11-25T13:17:41.137Z,48.60
2022-11-25T13:18:45.139Z,48.60
2022-11-25T13:19:47.740Z,48.60
2022-11-25T13:20:56.910Z,48.60
2022-11-25T13:22:02.648Z,48.60
2022-11-25T13:23:05.185Z,48.60
2022-11-25T13:24:31.395Z,48.60
2022-11-25T13:25:35.557Z,48.70
2022-11-25T13:26:46.993Z,48.70
2022-11-25T13:27:49.257Z,48.70
2022-11-25T13:28:51.645Z,48.70
2022-11-25T13:29:54.881Z,48.70
2022-11-25T13:31:19.216Z,48.70
2022-11-25T13:32:38.949Z,48.70
2022-11-25T13:33:44.552Z,48.70
2022-11-25T13:34:46.921Z,48.70
2022-11-25T13:35:53.515Z,48.80
2022-11-25T13:36:58.680Z,48.80
2022-11-25T13:38:01.286Z,48.90
2022-11-25T13:39:12.287Z,48.80
2022-11-25T13:40:28.527Z,48.60
2022-11-25T13:41:42.065Z,48.70
2022-11-25T13:42:45.003Z,48.80
2022-11-25T13:44:01.660Z,48.80
2022-11-25T13:45:05.129Z,49.30
2022-11-25T13:46:07.650Z,48.90
2022-11-25T13:47:34.836Z,48.90
2022-11-25T13:48:38.177Z,48.90
2022-11-25T13:49:49.719Z,48.90
2022-11-25T13:51:14.484Z,48.90
2022-11-25T13:52:30.464Z,48.90
2022-11-25T13:53:35.700Z,48.90
2022-11-25T13:54:58.615Z,48.90
2022-11-25T13:56:32.905Z,48.90
2022-11-25T13:57:38.044Z,49.00
2022-11-25T13:59:00.370Z,49.00
2022-11-25T14:00:30.277Z,48.80
2022-11-25T14:01:33.246Z,48.80
2022-11-25T14:02:44.757Z,48.90
2022-11-25T14:03:51.356Z,48.90
2022-11-25T14:05:11.795Z,48.80
2022-11-25T14:06:28.831Z,48.90
2022-11-25T14:07:43.434Z,49.00
2022-11-25T14:09:06.190Z,48.80
2022-11-25T14:10:45.693Z,49.60
2022-11-25T14:11:55.049Z,49.20
2022-11-25T14:13:09.074Z,49.10
2022-11-25T14:14:50.220Z,48.70
2022-11-25T14:16:10.588Z,48.80
2022-11-25T14:17:15.675Z,48.70
2022-11-25T14:18:36.865Z,48.70
2022-11-25T14:20:05.611Z,49.00
2022-11-25T14:21:45.577Z,48.80
2022-11-25T14:23:03.704Z,48.90
2022-11-25T14:24:25.279Z,48.80
2022-11-25T14:25:30.180Z,48.80
2022-11-25T14:26:49.345Z,48.80
2022-11-25T14:28:13.169Z,48.70
2022-11-25T14:29:54.112Z,48.80
2022-11-25T14:31:03.514Z,48.70
2022-11-25T14:32:39.048Z,48.80
2022-11-25T14:34:32.256Z,48.80
2022-11-25T14:35:42.061Z,48.80
2022-11-25T14:36:54.871Z,48.80
2022-11-25T14:38:01.110Z,48.80
2022-11-25T14:39:08.910Z,48.90
2022-11-25T14:40:36.568Z,48.90